Billinghay, United Kingdom
Current Conditions -  °F | °C
As of 10:12 AM on Thursday 29 Jan 2015 (Local Time) from EGXC Reporting Station
Light Snow Light Snow  
Wind Chill: 27°   Ceiling: Unl
Heat Index: 37°   Visibility: 6mi
Dew Point: 32°   Wind: 20mph
Humidity: 81%   Direction: 240°WSW
Pressure: 28.94"   Gusts: NA
Location:  53.08°N, 0.28°W
Report Text: EGXC 291012Z 24017KT 9999 -RASN SCT015 03/00 Q0980 WHT TEMPO 3000 -SHSN SCT010 YLO1
Loading
Personal Weather Stations






























Interactive Weather Map New forecast layout! Learn more

10-Day Weather Forecast

Advertisements
Track Severe Weather on mobile